createdAt,value
2023-05-01T00:03:18.035Z,3.20
2023-05-01T00:07:20.926Z,4.43
2023-05-01T00:11:22.742Z,4.30
2023-05-01T00:15:24.347Z,2.90
2023-05-01T00:19:26.030Z,2.90
2023-05-01T00:23:27.852Z,3.50
2023-05-01T00:27:29.483Z,2.88
2023-05-01T00:31:31.301Z,3.47
2023-05-01T00:35:32.950Z,3.05
2023-05-01T00:39:34.553Z,3.90
2023-05-01T00:43:36.253Z,5.30
2023-05-01T00:47:38.718Z,3.47
2023-05-01T00:51:41.146Z,3.75
2023-05-01T00:55:43.360Z,3.58
2023-05-01T00:59:45.444Z,3.30
2023-05-01T01:03:47.530Z,3.70
2023-05-01T01:08:05.153Z,3.58
2023-05-01T01:12:13.968Z,3.90
2023-05-01T01:16:32.827Z,4.05
2023-05-01T01:20:38.767Z,4.40
2023-05-01T01:25:10.344Z,4.03
2023-05-01T01:29:30.503Z,3.67
2023-05-01T01:33:32.434Z,3.15
2023-05-01T01:37:48.441Z,3.60
2023-05-01T01:41:52.495Z,3.60
2023-05-01T01:45:59.471Z,4.03
2023-05-01T01:50:05.019Z,4.35
2023-05-01T01:54:07.512Z,4.07
2023-05-01T01:58:10.811Z,4.43
2023-05-01T02:02:14.207Z,4.18
2023-05-01T02:06:17.546Z,3.20
2023-05-01T02:10:22.263Z,3.95
2023-05-01T02:14:26.540Z,3.60
2023-05-01T02:18:29.701Z,3.88
2023-05-01T02:22:32.194Z,3.60
2023-05-01T02:26:41.396Z,4.22
2023-05-01T02:30:43.091Z,3.55
2023-05-01T02:34:44.952Z,3.30
2023-05-01T02:38:47.242Z,3.45
2023-05-01T02:42:51.600Z,3.20
2023-05-01T02:46:55.353Z,2.95
2023-05-01T02:50:58.231Z,3.42
2023-05-01T02:55:00.580Z,3.25
2023-05-01T02:59:02.278Z,3.20
2023-05-01T03:03:04.040Z,3.38
2023-05-01T03:07:05.883Z,3.10
2023-05-01T03:11:07.954Z,3.05
2023-05-01T03:15:11.252Z,3.20
2023-05-01T03:19:12.946Z,3.75
2023-05-01T03:23:14.703Z,3.97
2023-05-01T03:27:16.349Z,3.78
2023-05-01T03:31:18.023Z,3.38
2023-05-01T03:35:19.732Z,3.30
2023-05-01T03:39:21.412Z,3.28
2023-05-01T03:43:23.868Z,3.17
2023-05-01T03:47:25.441Z,3.58
2023-05-01T03:51:27.306Z,3.60
2023-05-01T03:55:39.628Z,3.35
2023-05-01T03:59:43.745Z,3.43
2023-05-01T04:03:46.367Z,3.53
2023-05-01T04:07:48.256Z,3.33
2023-05-01T04:11:49.944Z,2.80
2023-05-01T04:15:51.711Z,3.17
2023-05-01T04:19:57.213Z,3.30
2023-05-01T04:23:59.125Z,3.17
2023-05-01T04:28:01.550Z,2.90
2023-05-01T04:32:03.408Z,2.85
2023-05-01T04:36:05.287Z,3.40
2023-05-01T04:40:09.771Z,3.28
2023-05-01T04:44:12.905Z,3.35
2023-05-01T04:48:14.625Z,3.05
2023-05-01T04:52:16.384Z,3.35
2023-05-01T04:56:18.064Z,2.95
2023-05-01T05:00:20.560Z,3.10
2023-05-01T05:04:22.463Z,3.10
2023-05-01T05:08:24.148Z,2.90
2023-05-01T05:12:26.026Z,2.80
2023-05-01T05:16:27.837Z,3.65
2023-05-01T05:20:29.718Z,5.05
2023-05-01T05:24:32.439Z,5.50
2023-05-01T05:28:34.032Z,5.20
2023-05-01T05:32:35.705Z,4.70
2023-05-01T05:36:37.707Z,4.55
2023-05-01T05:40:39.365Z,4.10
2023-05-01T05:44:41.196Z,4.32
2023-05-01T05:48:42.817Z,3.80
2023-05-01T05:52:44.433Z,3.90
2023-05-01T05:56:46.190Z,4.40
2023-05-01T06:00:48.512Z,3.70
2023-05-01T06:04:50.123Z,3.92
2023-05-01T06:08:51.905Z,4.05
2023-05-01T06:12:58.759Z,3.00
2023-05-01T06:17:11.271Z,3.13
2023-05-01T06:21:13.261Z,2.15
2023-05-01T06:25:15.099Z,2.42
2023-05-01T06:29:17.077Z,2.75
2023-05-01T06:33:18.830Z,2.30
2023-05-01T06:37:20.977Z,1.92
2023-05-01T06:41:23.436Z,2.40
2023-05-01T06:45:25.782Z,2.60
2023-05-01T06:49:27.702Z,2.20
2023-05-01T06:53:29.437Z,2.20
2023-05-01T06:57:31.052Z,2.03
2023-05-01T07:01:34.748Z,2.30
2023-05-01T07:05:37.181Z,2.05
2023-05-01T07:09:38.864Z,2.28
2023-05-01T07:13:40.764Z,2.42
2023-05-01T07:17:43.074Z,2.05
2023-05-01T07:21:44.910Z,2.22
2023-05-01T07:25:47.102Z,2.10
2023-05-01T07:29:50.465Z,2.10
2023-05-01T07:33:54.252Z,2.55
2023-05-01T07:37:56.111Z,2.50
2023-05-01T07:41:58.544Z,2.20
2023-05-01T07:46:01.616Z,2.47
2023-05-01T07:50:04.392Z,2.20
2023-05-01T07:54:06.077Z,2.13
2023-05-01T07:58:07.833Z,1.75
2023-05-01T08:02:09.581Z,1.98
2023-05-01T08:06:11.316Z,2.63
2023-05-01T08:10:13.019Z,2.47
2023-05-01T08:14:17.520Z,2.15
2023-05-01T08:18:22.149Z,2.05
2023-05-01T08:22:24.051Z,2.13
2023-05-01T08:26:25.950Z,2.13
2023-05-01T08:30:29.134Z,2.70
2023-05-01T08:34:31.196Z,2.00
2023-05-01T08:38:32.811Z,1.87
2023-05-01T08:42:37.426Z,2.00
2023-05-01T08:46:47.937Z,1.95
2023-05-01T08:50:50.669Z,2.40
2023-05-01T08:54:56.792Z,2.30
2023-05-01T08:59:01.093Z,2.20
2023-05-01T09:03:05.059Z,1.50
2023-05-01T09:07:07.847Z,1.85
2023-05-01T09:11:11.483Z,1.88
2023-05-01T09:15:13.663Z,2.47
2023-05-01T09:19:15.633Z,1.77
2023-05-01T09:23:17.568Z,1.57
2023-05-01T09:27:19.283Z,1.67
2023-05-01T09:31:22.757Z,1.80
2023-05-01T09:35:24.471Z,1.67
2023-05-01T09:39:26.537Z,1.50
2023-05-01T09:43:30.286Z,1.47
2023-05-01T09:47:34.064Z,1.58
2023-05-01T09:51:36.756Z,1.90
2023-05-01T09:55:38.463Z,1.85
2023-05-01T09:59:40.183Z,2.00
2023-05-01T10:03:44.066Z,2.15
2023-05-01T10:08:03.481Z,2.40
2023-05-01T10:12:05.935Z,2.30
2023-05-01T10:16:08.561Z,2.20
2023-05-01T10:20:13.655Z,2.58
2023-05-01T10:24:17.649Z,2.92
2023-05-01T10:28:21.045Z,2.88
2023-05-01T10:32:23.036Z,2.85
2023-05-01T10:36:30.540Z,2.85
2023-05-01T10:40:44.425Z,2.95
2023-05-01T10:44:47.984Z,3.08
2023-05-01T10:48:49.703Z,3.47
2023-05-01T10:53:11.561Z,2.60
2023-05-01T10:57:42.404Z,3.28
2023-05-01T11:01:45.804Z,3.17
2023-05-01T11:06:05.453Z,3.08
2023-05-01T11:10:25.848Z,4.38
2023-05-01T11:14:27.580Z,3.10
2023-05-01T11:18:45.988Z,3.03
2023-05-01T11:22:51.354Z,2.95
2023-05-01T11:26:53.374Z,2.40
2023-05-01T11:30:55.659Z,3.10
2023-05-01T11:34:57.854Z,5.10
2023-05-01T11:38:59.998Z,4.13
2023-05-01T11:43:03.702Z,4.05
2023-05-01T11:47:07.300Z,3.90
2023-05-01T11:51:13.183Z,2.92
2023-05-01T11:55:16.246Z,2.88
2023-05-01T11:59:17.957Z,3.30
2023-05-01T12:03:20.747Z,3.13
2023-05-01T12:07:23.609Z,2.92
2023-05-01T12:11:25.816Z,3.08
2023-05-01T12:15:27.592Z,3.05
2023-05-01T12:19:29.309Z,3.42
2023-05-01T12:23:37.320Z,15.50
2023-05-01T12:27:45.984Z,4.05
2023-05-01T12:31:49.638Z,3.40
2023-05-01T12:35:51.765Z,26.55
2023-05-01T12:39:53.456Z,3.33
2023-05-01T12:43:55.153Z,3.10
2023-05-01T12:47:57.280Z,3.25
2023-05-01T12:52:03.717Z,2.92
2023-05-01T12:56:06.603Z,2.22
2023-05-01T13:04:11.427Z,3.00
2023-05-01T13:08:13.785Z,2.17
2023-05-01T13:12:15.520Z,2.05
2023-05-01T13:16:17.591Z,2.15
2023-05-01T13:20:26.905Z,2.13
2023-05-01T13:24:42.875Z,2.17
2023-05-01T13:28:45.497Z,2.45
2023-05-01T13:32:47.915Z,2.55
2023-05-01T13:36:49.642Z,2.60
2023-05-01T13:40:51.407Z,2.42
2023-05-01T13:44:55.410Z,2.50
2023-05-01T13:48:58.821Z,2.30
2023-05-01T13:53:01.250Z,2.65
2023-05-01T13:57:02.992Z,2.67
2023-05-01T14:01:32.671Z,2.63
2023-05-01T14:05:36.563Z,2.60
2023-05-01T14:09:41.763Z,3.00
2023-05-01T14:13:46.222Z,2.67
2023-05-01T14:17:50.435Z,6.35
2023-05-01T14:21:52.242Z,3.97
2023-05-01T14:25:53.979Z,4.25
2023-05-01T14:29:55.975Z,3.00
2023-05-01T14:34:03.787Z,3.27
2023-05-01T14:38:11.486Z,4.03
2023-05-01T14:42:13.310Z,2.70
2023-05-01T14:46:16.073Z,4.40
2023-05-01T14:50:24.799Z,3.70
2023-05-01T14:54:26.538Z,3.55
2023-05-01T14:58:28.288Z,3.75
2023-05-01T15:02:30.816Z,3.85
2023-05-01T15:06:33.013Z,4.10
2023-05-01T15:10:34.781Z,4.37
2023-05-01T15:14:36.511Z,5.10
2023-05-01T15:18:39.061Z,3.55
2023-05-01T15:22:41.185Z,3.30
2023-05-01T15:26:43.027Z,3.90
2023-05-01T15:30:46.351Z,4.43
2023-05-01T15:34:49.999Z,4.25
2023-05-01T15:38:51.671Z,4.07
2023-05-01T15:42:53.539Z,3.95
2023-05-01T15:46:55.492Z,4.25
2023-05-01T15:50:57.254Z,4.00
2023-05-01T15:54:58.995Z,5.28
2023-05-01T15:59:05.150Z,5.32
2023-05-01T16:03:08.506Z,7.70
2023-05-01T16:07:10.623Z,11.93
2023-05-01T16:11:15.160Z,7.55
2023-05-01T16:15:17.216Z,5.68
2023-05-01T16:19:19.859Z,5.07
2023-05-01T16:23:22.210Z,5.13
2023-05-01T16:27:23.866Z,6.47
2023-05-01T16:31:27.434Z,5.85
2023-05-01T16:35:29.702Z,6.68
2023-05-01T16:39:35.477Z,4.82
2023-05-01T16:43:37.166Z,6.35
2023-05-01T16:47:38.986Z,6.07
2023-05-01T16:51:42.406Z,6.45
2023-05-01T16:55:44.432Z,8.35
2023-05-01T16:59:46.112Z,8.82
2023-05-01T17:03:47.830Z,8.52
2023-05-01T17:07:49.567Z,9.75
2023-05-01T17:11:51.327Z,10.10
2023-05-01T17:15:53.017Z,11.30
2023-05-01T17:19:54.753Z,9.95
2023-05-01T17:23:56.578Z,10.07
2023-05-01T17:27:59.012Z,10.25
2023-05-01T17:32:01.035Z,10.23
2023-05-01T17:36:02.892Z,9.52
2023-05-01T17:40:05.270Z,7.85
2023-05-01T17:44:06.994Z,9.63
2023-05-01T17:48:09.228Z,8.68
2023-05-01T17:52:10.992Z,12.67
2023-05-01T17:56:12.698Z,12.02
2023-05-01T18:00:14.630Z,12.93
2023-05-01T18:04:16.381Z,13.63
2023-05-01T18:08:18.118Z,14.55
2023-05-01T18:12:19.876Z,14.32
2023-05-01T18:16:23.191Z,12.10
2023-05-01T18:20:25.433Z,12.43
2023-05-01T18:24:27.188Z,10.93
2023-05-01T18:28:28.906Z,10.55
2023-05-01T18:32:46.271Z,10.90
2023-05-01T18:36:52.212Z,9.80
2023-05-01T18:40:53.986Z,12.88
2023-05-01T18:44:56.919Z,14.55
2023-05-01T18:53:01.322Z,7.17
2023-05-01T18:57:02.977Z,7.65
2023-05-01T19:01:04.720Z,7.93
2023-05-01T19:05:08.589Z,8.10
2023-05-01T19:09:11.019Z,8.75
2023-05-01T19:13:12.736Z,7.18
2023-05-01T19:17:14.487Z,8.82
2023-05-01T19:21:16.271Z,9.60
2023-05-01T19:25:19.366Z,11.85
2023-05-01T19:29:21.056Z,11.35
2023-05-01T19:33:22.714Z,13.02
2023-05-01T19:37:26.576Z,12.50
2023-05-01T19:41:28.252Z,11.52
2023-05-01T19:45:29.921Z,12.02
2023-05-01T19:49:31.571Z,12.43
2023-05-01T19:53:33.330Z,12.15
2023-05-01T19:57:34.936Z,12.60
2023-05-01T20:01:38.651Z,12.85
2023-05-01T20:05:40.650Z,12.43
2023-05-01T20:09:42.566Z,13.90
2023-05-01T20:13:45.372Z,12.77
2023-05-01T20:17:50.404Z,13.48
2023-05-01T20:21:52.192Z,13.80
2023-05-01T20:25:53.930Z,14.02
2023-05-01T20:29:55.613Z,15.25
2023-05-01T20:33:57.300Z,16.20
2023-05-01T20:37:59.477Z,16.38
2023-05-01T20:42:01.368Z,15.13
2023-05-01T20:46:03.041Z,16.42
2023-05-01T20:50:05.019Z,15.88
2023-05-01T20:54:07.566Z,19.05
2023-05-01T20:58:09.268Z,17.67
2023-05-01T21:02:11.119Z,18.00
2023-05-01T21:06:14.308Z,17.08
2023-05-01T21:10:16.550Z,18.83
2023-05-01T21:14:18.253Z,17.00
2023-05-01T21:18:20.427Z,17.95
2023-05-01T21:22:22.790Z,19.50
2023-05-01T21:26:24.627Z,19.43
2023-05-01T21:30:33.221Z,21.02
2023-05-01T21:34:35.682Z,20.23
2023-05-01T21:38:37.364Z,19.27
2023-05-01T21:42:40.204Z,20.00
2023-05-01T21:46:42.536Z,20.02
2023-05-01T21:50:48.821Z,19.45
2023-05-01T21:54:50.651Z,20.73
2023-05-01T21:58:52.488Z,20.95
2023-05-01T22:02:54.307Z,21.15
2023-05-01T22:06:56.049Z,22.80
2023-05-01T22:10:58.136Z,21.75
2023-05-01T22:14:59.783Z,22.73
2023-05-01T22:19:01.449Z,22.88
2023-05-01T22:23:03.068Z,23.20
2023-05-01T22:27:04.852Z,22.80
2023-05-01T22:31:06.457Z,24.50
2023-05-01T22:35:08.768Z,26.35
2023-05-01T22:39:10.604Z,25.83
2023-05-01T22:43:12.259Z,28.35
2023-05-01T22:47:13.948Z,29.52
2023-05-01T22:51:15.750Z,30.05
2023-05-01T22:55:17.588Z,31.25
2023-05-01T22:59:19.894Z,33.40
2023-05-01T23:03:22.001Z,30.92
2023-05-01T23:07:23.823Z,32.40
2023-05-01T23:11:30.878Z,30.40
2023-05-01T23:15:32.686Z,32.00
2023-05-01T23:19:34.274Z,33.50
2023-05-01T23:23:37.333Z,33.65
2023-05-01T23:27:41.844Z,34.10
2023-05-01T23:31:47.931Z,35.67
2023-05-01T23:35:49.770Z,35.92
2023-05-01T23:39:53.548Z,34.85
2023-05-01T23:43:55.794Z,34.85
2023-05-01T23:47:58.545Z,33.13
2023-05-01T23:52:00.321Z,33.33
2023-05-01T23:56:02.157Z,34.22
